Milo, Missouri
Current Conditions -  °F | °C
As of 1:55 AM on Friday 31 Oct 2014 (Local Time) from KPTS Reporting Station
Clear Clear  
Wind Chill: 11°   Ceiling: Unl
Heat Index: 11°   Visibility: 10mi
Dew Point:   Wind: 7mph
Humidity: 70%   Direction: 360°N
Pressure: 30.19"   Gusts: NA
Location:  37.76°N, 94.31°W
Report Text: KPTS 310655Z AUTO 36006KT 10SM CLR 11/06 A3019 RMK AO2 T01120060
Loading
Personal Weather Stations






























Interactive Weather Map
Tropical Storm Tracking
New forecast layout! Learn more

10-Day Weather Forecast

Advertisements
Track Severe Weather on mobile